createdAt,value
2023-03-25T00:02:53.096Z,27.20
2023-03-25T00:07:56.519Z,19.90
2023-03-25T00:13:04.897Z,19.60
2023-03-25T00:18:07.885Z,20.10
2023-03-25T00:23:11.004Z,17.80
2023-03-25T00:28:16.342Z,20.60
2023-03-25T00:33:19.220Z,18.70
2023-03-25T00:38:24.558Z,20.70
2023-03-25T00:43:27.416Z,22.00
2023-03-25T00:48:30.536Z,19.70
2023-03-25T00:53:35.437Z,20.90
2023-03-25T00:58:38.749Z,17.60
2023-03-25T01:03:45.167Z,17.80
2023-03-25T01:08:48.073Z,18.60
2023-03-25T01:13:51.518Z,19.60
2023-03-25T01:18:55.778Z,19.90
2023-03-25T01:23:58.672Z,22.30
2023-03-25T01:29:02.188Z,19.30
2023-03-25T01:34:06.095Z,21.60
2023-03-25T01:39:10.681Z,24.00
2023-03-25T01:44:19.547Z,26.20
2023-03-25T01:49:33.518Z,20.20
2023-03-25T01:54:38.988Z,19.70
2023-03-25T01:59:42.318Z,19.20
2023-03-25T02:04:59.277Z,18.00
2023-03-25T02:10:07.967Z,21.90
2023-03-25T02:15:14.378Z,23.70
2023-03-25T02:20:54.897Z,19.20
2023-03-25T02:26:34.238Z,18.80
2023-03-25T02:31:51.976Z,20.50
2023-03-25T02:37:16.498Z,18.00
2023-03-25T02:42:45.144Z,18.80
2023-03-25T02:47:56.096Z,20.90
2023-03-25T02:53:04.586Z,23.20
2023-03-25T02:58:13.461Z,18.40
2023-03-25T03:03:16.444Z,16.80
2023-03-25T03:08:22.853Z,17.50
2023-03-25T03:13:43.680Z,16.40
2023-03-25T03:19:02.321Z,18.90
2023-03-25T03:24:25.800Z,20.30
2023-03-25T03:29:44.269Z,19.90
2023-03-25T03:34:53.727Z,20.30
2023-03-25T03:39:58.234Z,21.00
2023-03-25T03:45:12.802Z,18.40
2023-03-25T03:50:24.481Z,20.50
2023-03-25T03:55:38.017Z,19.50
2023-03-25T04:01:12.056Z,19.40
2023-03-25T04:06:35.530Z,17.50
2023-03-25T04:11:53.525Z,18.40
2023-03-25T04:16:56.527Z,16.00
2023-03-25T04:22:01.748Z,18.10
2023-03-25T04:27:05.042Z,16.00
2023-03-25T04:32:12.262Z,18.60
2023-03-25T04:37:15.604Z,20.60
2023-03-25T04:42:18.999Z,18.90
2023-03-25T04:47:25.353Z,23.30
2023-03-25T04:52:28.276Z,22.20
2023-03-25T04:57:31.494Z,20.70
2023-03-25T05:02:34.641Z,22.70
2023-03-25T05:07:37.673Z,21.90
2023-03-25T05:12:40.814Z,23.90
2023-03-25T05:17:45.077Z,25.90
2023-03-25T05:22:48.145Z,26.20
2023-03-25T05:27:51.063Z,31.60
2023-03-25T05:32:56.517Z,30.60
2023-03-25T05:37:59.940Z,24.90
2023-03-25T05:43:03.453Z,25.20
2023-03-25T05:48:07.049Z,32.80
2023-03-25T05:53:15.674Z,36.20
2023-03-25T05:58:21.500Z,34.10
2023-03-25T06:03:26.248Z,28.50
2023-03-25T06:08:30.039Z,27.20
2023-03-25T06:13:34.069Z,29.90
2023-03-25T06:18:37.673Z,32.70
2023-03-25T06:23:40.551Z,33.50
2023-03-25T06:28:43.802Z,32.20
2023-03-25T06:33:49.356Z,30.70
2023-03-25T06:38:52.713Z,31.30
2023-03-25T06:50:57.481Z,25.30
2023-03-25T06:56:00.469Z,22.50
2023-03-25T07:01:07.716Z,23.60
2023-03-25T07:06:20.835Z,22.70
2023-03-25T07:11:29.455Z,30.00
2023-03-25T07:16:32.465Z,18.70
2023-03-25T07:21:35.578Z,18.30
2023-03-25T07:26:38.752Z,19.20
2023-03-25T07:31:42.015Z,20.10
2023-03-25T07:36:45.276Z,15.60
2023-03-25T07:41:53.180Z,15.70
2023-03-25T07:46:57.718Z,17.60
2023-03-25T07:52:00.797Z,17.90
2023-03-25T07:57:05.590Z,17.20
2023-03-25T08:02:14.394Z,15.00
2023-03-25T08:07:20.386Z,17.50
2023-03-25T08:12:23.766Z,17.20
2023-03-25T08:17:32.619Z,16.50
2023-03-25T08:22:36.265Z,17.20
2023-03-25T08:27:39.325Z,19.10
2023-03-25T08:32:46.401Z,18.00
2023-03-25T08:37:52.912Z,15.70
2023-03-25T08:42:55.776Z,16.10
2023-03-25T08:47:59.228Z,16.60
2023-03-25T08:53:02.441Z,15.50
2023-03-25T08:58:06.420Z,16.20
2023-03-25T09:03:09.644Z,14.30
2023-03-25T09:08:12.624Z,15.40
2023-03-25T09:13:15.725Z,17.10
2023-03-25T09:18:18.694Z,16.90
2023-03-25T09:23:21.623Z,18.40
2023-03-25T09:28:24.482Z,16.10
2023-03-25T09:33:27.983Z,14.20
2023-03-25T09:38:31.215Z,15.70
2023-03-25T09:44:19.181Z,18.00
2023-03-25T09:49:41.812Z,14.20
2023-03-25T09:54:52.458Z,14.30
2023-03-25T10:00:00.385Z,13.80
2023-03-25T10:05:45.315Z,16.90
2023-03-25T10:11:28.023Z,12.10
2023-03-25T10:17:04.520Z,11.90
2023-03-25T10:22:38.420Z,16.40
2023-03-25T10:27:52.557Z,13.00
2023-03-25T10:33:04.202Z,14.40
2023-03-25T10:38:24.298Z,15.50
2023-03-25T10:43:43.242Z,11.80
2023-03-25T10:48:47.516Z,14.90
2023-03-25T10:53:53.488Z,16.00
2023-03-25T10:58:59.032Z,15.10
2023-03-25T11:04:06.201Z,12.50
2023-03-25T11:09:23.627Z,13.40
2023-03-25T11:14:29.295Z,13.70
2023-03-25T11:19:40.586Z,15.50
2023-03-25T11:24:50.730Z,14.50
2023-03-25T11:29:59.867Z,16.00
2023-03-25T11:35:37.139Z,16.00
2023-03-25T11:40:57.696Z,14.00
2023-03-25T11:46:10.551Z,15.10
2023-03-25T11:51:28.315Z,12.20
2023-03-25T11:56:43.163Z,10.30
2023-03-25T12:01:49.545Z,13.00
2023-03-25T12:07:09.886Z,13.80
2023-03-25T12:12:54.311Z,13.00
2023-03-25T12:18:18.399Z,16.10
2023-03-25T12:23:48.220Z,13.50
2023-03-25T12:29:32.692Z,12.00
2023-03-25T12:35:05.990Z,15.10
2023-03-25T12:40:39.461Z,15.20
2023-03-25T12:46:10.820Z,12.40
2023-03-25T12:52:03.525Z,13.70
2023-03-25T12:57:33.956Z,13.30
2023-03-25T13:03:04.096Z,15.00
2023-03-25T13:08:43.859Z,17.60
2023-03-25T13:13:49.531Z,17.80
2023-03-25T13:19:02.333Z,18.90
2023-03-25T13:24:13.869Z,24.00
2023-03-25T13:29:34.504Z,19.70
2023-03-25T13:34:50.176Z,16.70
2023-03-25T13:40:15.077Z,14.60
2023-03-25T13:45:23.643Z,16.40
2023-03-25T13:50:30.654Z,16.70
2023-03-25T13:55:56.322Z,16.40
2023-03-25T14:01:17.982Z,17.00
2023-03-25T14:06:51.965Z,11.90
2023-03-25T14:12:11.747Z,14.00
2023-03-25T14:17:17.946Z,10.80
2023-03-25T14:22:31.991Z,11.60
2023-03-25T14:27:37.575Z,9.40
2023-03-25T14:32:44.693Z,9.40
2023-03-25T14:37:48.590Z,9.00
2023-03-25T14:43:00.108Z,8.40
2023-03-25T14:48:22.955Z,10.10
2023-03-25T14:53:28.540Z,8.70
2023-03-25T14:58:31.996Z,9.10
2023-03-25T15:03:39.506Z,8.60
2023-03-25T15:08:53.103Z,10.30
2023-03-25T15:14:04.494Z,9.70
2023-03-25T15:19:12.330Z,9.00
2023-03-25T15:24:25.509Z,12.40
2023-03-25T15:29:44.572Z,17.50
2023-03-25T15:34:59.266Z,17.60
2023-03-25T15:40:41.276Z,26.40
2023-03-25T15:46:05.888Z,10.80
2023-03-25T15:51:48.868Z,11.60
2023-03-25T15:56:59.397Z,10.30
2023-03-25T16:02:05.076Z,14.60
2023-03-25T16:07:14.437Z,13.40
2023-03-25T16:12:37.785Z,21.50
2023-03-25T16:18:00.781Z,16.60
2023-03-25T16:23:07.930Z,16.80
2023-03-25T16:33:41.331Z,16.30
2023-03-25T16:38:44.525Z,12.10
2023-03-25T16:43:48.068Z,13.50
2023-03-25T16:48:53.973Z,9.70
2023-03-25T16:54:01.447Z,24.40
2023-03-25T16:59:26.104Z,12.60
2023-03-25T17:04:36.895Z,11.50
2023-03-25T17:09:43.869Z,18.20
2023-03-25T17:14:52.721Z,15.00
2023-03-25T17:20:16.743Z,21.30
2023-03-25T17:25:36.217Z,17.30
2023-03-25T17:30:45.834Z,31.40
2023-03-25T17:35:55.195Z,31.40
2023-03-25T17:41:06.501Z,46.20
2023-03-25T17:46:10.347Z,59.00
2023-03-25T17:51:16.535Z,23.70
2023-03-25T17:56:25.671Z,15.20
2023-03-25T18:01:31.487Z,22.30
2023-03-25T18:06:34.492Z,23.70
2023-03-25T18:11:37.731Z,41.60
2023-03-25T18:16:41.008Z,20.60
2023-03-25T18:21:44.886Z,32.50
2023-03-25T18:26:48.426Z,55.10
2023-03-25T18:31:52.616Z,44.90
2023-03-25T18:36:56.105Z,18.10
2023-03-25T18:41:59.004Z,13.40
2023-03-25T18:47:01.901Z,15.90
2023-03-25T18:52:05.141Z,28.10
2023-03-25T18:57:08.858Z,16.90
2023-03-25T19:02:11.893Z,18.40
2023-03-25T19:07:15.404Z,17.00
2023-03-25T19:12:18.382Z,16.30
2023-03-25T19:17:21.868Z,17.40
2023-03-25T19:22:25.084Z,18.20
2023-03-25T19:27:28.185Z,24.80
2023-03-25T19:32:31.200Z,22.50
2023-03-25T19:37:35.484Z,19.10
2023-03-25T19:42:39.534Z,15.90
2023-03-25T19:47:45.499Z,20.60
2023-03-25T19:52:51.576Z,21.60
2023-03-25T19:57:54.992Z,27.70
2023-03-25T20:03:00.972Z,28.30
2023-03-25T20:08:04.635Z,20.50
2023-03-25T20:13:07.896Z,19.30
2023-03-25T20:18:11.217Z,20.70
2023-03-25T20:23:14.390Z,18.40
2023-03-25T20:28:18.667Z,19.80
2023-03-25T20:33:21.747Z,18.10
2023-03-25T20:38:24.707Z,18.00
2023-03-25T20:43:27.942Z,15.60
2023-03-25T20:48:32.360Z,15.00
2023-03-25T20:53:35.760Z,15.70
2023-03-25T20:58:38.791Z,15.50
2023-03-25T21:03:42.978Z,19.70
2023-03-25T21:08:47.359Z,14.90
2023-03-25T21:13:50.565Z,16.80
2023-03-25T21:18:56.582Z,16.50
2023-03-25T21:23:59.475Z,17.90
2023-03-25T21:29:02.673Z,18.60
2023-03-25T21:34:06.507Z,13.60
2023-03-25T21:39:09.877Z,12.90
2023-03-25T21:44:15.966Z,11.80
2023-03-25T21:49:22.498Z,15.00
2023-03-25T21:54:25.404Z,12.40
2023-03-25T21:59:28.585Z,13.30
2023-03-25T22:04:33.695Z,12.40
2023-03-25T22:09:36.865Z,13.00
2023-03-25T22:14:39.864Z,11.90
2023-03-25T22:19:42.765Z,12.00
2023-03-25T22:24:47.045Z,11.20
2023-03-25T22:29:50.056Z,12.10
2023-03-25T22:34:54.151Z,13.30
2023-03-25T22:39:57.093Z,11.50
2023-03-25T22:45:00.033Z,14.60
2023-03-25T22:50:09.748Z,13.00
2023-03-25T22:55:12.706Z,13.70
2023-03-25T23:00:17.581Z,13.50
2023-03-25T23:05:20.525Z,12.40
2023-03-25T23:10:23.457Z,17.20
2023-03-25T23:15:28.005Z,15.00
2023-03-25T23:20:31.774Z,11.80
2023-03-25T23:25:34.624Z,11.30
2023-03-25T23:30:37.550Z,11.30
2023-03-25T23:35:40.499Z,9.60
2023-03-25T23:40:43.503Z,11.80
2023-03-25T23:45:46.895Z,10.50
2023-03-25T23:50:50.136Z,10.30
2023-03-25T23:55:55.778Z,10.40
